HAZ2122 ZSNJ-ZSHC
Flight info
| Callsign | HAZ2122 |
|---|---|
| Flight time | 0h 40m |
| Altitude | 10800 |
| Route | TES52X TESIG A470 IGRAT IGRAT91 |
| Aircraft | A339/H-SADE1E2E3GHIJ3J5M1P2RWXY/LB2D1 |
Departure
| Time | 2026-04-29 10:49 |
|---|---|
| Airport | Nanjing Lukou International Airport (ZSNJ) |
Arrival
| Time | 2026-04-29 11:29 |
|---|---|
| Airport | Hangzhou Xiaoshan International Airport (ZSHC) |
| Time | Latitude | Longitude | Altitude | Speed | Heading |
|---|---|---|---|---|---|
| 2026-04-29 10:32 | 31.72997 | 118.86947 | 65 ft | 0 kts | 329° |
| 2026-04-29 10:41 | 31.72987 | 118.86954 | 65 ft | 2 kts | 329° |
| 2026-04-29 10:41 | 31.72974 | 118.86963 | 65 ft | 2 kts | 329° |
| 2026-04-29 10:41 | 31.72962 | 118.86972 | 65 ft | 2 kts | 329° |
| 2026-04-29 10:41 | 31.72949 | 118.86981 | 66 ft | 2 kts | 329° |
| 2026-04-29 10:42 | 31.72936 | 118.86989 | 65 ft | 2 kts | 349° |
| 2026-04-29 10:42 | 31.72921 | 118.86989 | 65 ft | 2 kts | 16° |
| 2026-04-29 10:42 | 31.72908 | 118.86982 | 65 ft | 2 kts | 40° |
| 2026-04-29 10:42 | 31.72901 | 118.86974 | 65 ft | 0 kts | 58° |
| 2026-04-29 10:43 | 31.72899 | 118.86968 | 65 ft | 0 kts | 58° |
| 2026-04-29 10:44 | 31.72904 | 118.86979 | 65 ft | 2 kts | 58° |
| 2026-04-29 10:45 | 31.72913 | 118.87006 | 65 ft | 4 kts | 78° |
| 2026-04-29 10:45 | 31.72909 | 118.87047 | 65 ft | 5 kts | 114° |
| 2026-04-29 10:45 | 31.72882 | 118.87077 | 65 ft | 4 kts | 156° |
| 2026-04-29 10:45 | 31.72848 | 118.87101 | 65 ft | 6 kts | 148° |
| 2026-04-29 10:46 | 31.72816 | 118.87144 | 65 ft | 7 kts | 95° |
| 2026-04-29 10:46 | 31.72837 | 118.87209 | 65 ft | 9 kts | 58° |
| 2026-04-29 10:46 | 31.72880 | 118.87294 | 65 ft | 16 kts | 58° |
| 2026-04-29 10:46 | 31.72952 | 118.87430 | 65 ft | 20 kts | 57° |
| 2026-04-29 10:47 | 31.73029 | 118.87573 | 65 ft | 20 kts | 58° |
| 2026-04-29 10:47 | 31.73102 | 118.87709 | 65 ft | 19 kts | 58° |
| 2026-04-29 10:47 | 31.73163 | 118.87823 | 65 ft | 14 kts | 57° |
| 2026-04-29 10:47 | 31.73198 | 118.87906 | 65 ft | 10 kts | 88° |
| 2026-04-29 10:48 | 31.73156 | 118.87954 | 65 ft | 9 kts | 155° |
| 2026-04-29 10:48 | 31.73090 | 118.87993 | 65 ft | 10 kts | 155° |
| 2026-04-29 10:48 | 31.73048 | 118.87983 | 65 ft | 2 kts | 238° |
| 2026-04-29 10:48 | 31.72971 | 118.87846 | 65 ft | 54 kts | 238° |
| 2026-04-29 10:49 | 31.72645 | 118.87233 | 66 ft | 121 kts | 238° |
| 2026-04-29 10:49 | 31.72096 | 118.86214 | 226 ft | 161 kts | 237° |
| 2026-04-29 10:49 | 31.71523 | 118.85143 | 938 ft | 155 kts | 238° |
| 2026-04-29 10:49 | 31.70969 | 118.84067 | 1592 ft | 156 kts | 239° |
| 2026-04-29 10:50 | 31.70408 | 118.83006 | 2146 ft | 154 kts | 240° |
| 2026-04-29 10:50 | 31.69841 | 118.81947 | 2641 ft | 155 kts | 240° |
| 2026-04-29 10:50 | 31.69263 | 118.80872 | 3081 ft | 159 kts | 241° |
| 2026-04-29 10:50 | 31.68652 | 118.79735 | 3463 ft | 169 kts | 242° |
| 2026-04-29 10:51 | 31.68001 | 118.78513 | 3784 ft | 185 kts | 241° |
| 2026-04-29 10:51 | 31.67295 | 118.77187 | 4120 ft | 201 kts | 241° |
| 2026-04-29 10:51 | 31.66515 | 118.75726 | 4487 ft | 218 kts | 240° |
| 2026-04-29 10:51 | 31.65677 | 118.74160 | 4841 ft | 236 kts | 240° |
| 2026-04-29 10:52 | 31.64518 | 118.72739 | 5370 ft | 248 kts | 206° |
| 2026-04-29 10:52 | 31.62854 | 118.72391 | 6114 ft | 246 kts | 166° |
| 2026-04-29 10:52 | 31.61374 | 118.73227 | 6875 ft | 237 kts | 130° |
| 2026-04-29 10:52 | 31.60572 | 118.74839 | 7575 ft | 231 kts | 97° |
| 2026-04-29 10:53 | 31.60650 | 118.76670 | 8226 ft | 228 kts | 66° |
| 2026-04-29 10:53 | 31.61286 | 118.78383 | 8856 ft | 233 kts | 63° |
| 2026-04-29 10:53 | 31.61953 | 118.80103 | 9496 ft | 239 kts | 63° |
| 2026-04-29 10:53 | 31.62632 | 118.81903 | 10134 ft | 245 kts | 64° |
| 2026-04-29 10:54 | 31.63311 | 118.83744 | 10679 ft | 250 kts | 64° |
| 2026-04-29 10:54 | 31.64001 | 118.85654 | 10950 ft | 254 kts | 64° |
| 2026-04-29 10:54 | 31.64682 | 118.87539 | 10973 ft | 255 kts | 64° |
| 2026-04-29 10:54 | 31.65376 | 118.89463 | 10974 ft | 254 kts | 64° |
| 2026-04-29 10:55 | 31.66065 | 118.91377 | 10975 ft | 254 kts | 64° |
| 2026-04-29 10:55 | 31.66578 | 118.93346 | 10976 ft | 256 kts | 80° |
| 2026-04-29 10:55 | 31.66586 | 118.95466 | 10994 ft | 260 kts | 97° |
| 2026-04-29 10:55 | 31.66069 | 118.97492 | 10982 ft | 262 kts | 115° |
| 2026-04-29 10:56 | 31.65068 | 118.99265 | 10965 ft | 264 kts | 133° |
| 2026-04-29 10:56 | 31.63673 | 119.00677 | 10975 ft | 263 kts | 144° |
| 2026-04-29 10:56 | 31.62169 | 119.01925 | 10992 ft | 265 kts | 145° |
| 2026-04-29 10:56 | 31.60662 | 119.03155 | 11008 ft | 264 kts | 145° |
| 2026-04-29 10:57 | 31.59174 | 119.04388 | 10998 ft | 264 kts | 144° |
| 2026-04-29 10:57 | 31.57681 | 119.05653 | 10991 ft | 265 kts | 143° |
| 2026-04-29 10:57 | 31.56210 | 119.06933 | 10990 ft | 264 kts | 143° |
| 2026-04-29 10:57 | 31.54725 | 119.08237 | 10988 ft | 263 kts | 143° |
| 2026-04-29 10:58 | 31.53274 | 119.09512 | 10989 ft | 262 kts | 143° |
| 2026-04-29 10:58 | 31.51802 | 119.10805 | 10991 ft | 263 kts | 143° |
| 2026-04-29 10:58 | 31.50343 | 119.12083 | 10993 ft | 263 kts | 143° |
| 2026-04-29 10:58 | 31.48868 | 119.13376 | 10994 ft | 263 kts | 143° |
| 2026-04-29 10:59 | 31.47408 | 119.14655 | 10989 ft | 264 kts | 143° |
| 2026-04-29 10:59 | 31.45934 | 119.15942 | 10990 ft | 263 kts | 143° |
| 2026-04-29 10:59 | 31.44477 | 119.17218 | 10991 ft | 263 kts | 143° |
| 2026-04-29 10:59 | 31.43008 | 119.18503 | 10990 ft | 264 kts | 143° |
| 2026-04-29 11:00 | 31.41516 | 119.19805 | 10989 ft | 265 kts | 143° |
| 2026-04-29 11:00 | 31.40032 | 119.21101 | 10988 ft | 265 kts | 143° |
| 2026-04-29 11:00 | 31.38567 | 119.22377 | 10987 ft | 263 kts | 143° |
| 2026-04-29 11:00 | 31.37088 | 119.23669 | 10992 ft | 264 kts | 143° |
| 2026-04-29 11:01 | 31.35618 | 119.24952 | 10991 ft | 264 kts | 143° |
| 2026-04-29 11:01 | 31.34152 | 119.26231 | 10989 ft | 264 kts | 143° |
| 2026-04-29 11:01 | 31.32677 | 119.27515 | 10992 ft | 263 kts | 143° |
| 2026-04-29 11:01 | 31.31215 | 119.28790 | 10992 ft | 265 kts | 143° |
| 2026-04-29 11:02 | 31.29727 | 119.30085 | 10989 ft | 264 kts | 143° |
| 2026-04-29 11:02 | 31.28262 | 119.31361 | 10989 ft | 263 kts | 143° |
| 2026-04-29 11:02 | 31.26784 | 119.32647 | 10987 ft | 264 kts | 143° |
| 2026-04-29 11:02 | 31.25302 | 119.33935 | 10986 ft | 264 kts | 143° |
| 2026-04-29 11:03 | 31.23833 | 119.35211 | 10986 ft | 263 kts | 144° |
| 2026-04-29 11:03 | 31.22361 | 119.36492 | 10989 ft | 264 kts | 144° |
| 2026-04-29 11:03 | 31.20881 | 119.37777 | 10989 ft | 265 kts | 143° |
| 2026-04-29 11:03 | 31.19404 | 119.39060 | 10988 ft | 264 kts | 143° |
| 2026-04-29 11:04 | 31.17950 | 119.40331 | 10987 ft | 264 kts | 143° |
| 2026-04-29 11:04 | 31.16460 | 119.41634 | 10985 ft | 263 kts | 143° |
| 2026-04-29 11:04 | 31.14999 | 119.42915 | 10988 ft | 264 kts | 144° |
| 2026-04-29 11:04 | 31.13542 | 119.44188 | 10983 ft | 263 kts | 144° |
| 2026-04-29 11:05 | 31.12080 | 119.45464 | 10981 ft | 263 kts | 143° |
| 2026-04-29 11:05 | 31.10600 | 119.46758 | 10982 ft | 262 kts | 143° |
| 2026-04-29 11:05 | 31.09137 | 119.48035 | 10982 ft | 263 kts | 143° |
| 2026-04-29 11:05 | 31.07680 | 119.49307 | 10984 ft | 264 kts | 144° |
| 2026-04-29 11:06 | 31.06202 | 119.50596 | 10984 ft | 263 kts | 144° |
| 2026-04-29 11:06 | 31.04746 | 119.51867 | 10979 ft | 264 kts | 144° |
| 2026-04-29 11:06 | 31.03279 | 119.53143 | 10976 ft | 263 kts | 144° |
| 2026-04-29 11:06 | 31.01791 | 119.54442 | 10981 ft | 264 kts | 144° |
| 2026-04-29 11:07 | 31.00335 | 119.55710 | 10980 ft | 264 kts | 144° |
| 2026-04-29 11:07 | 30.98856 | 119.56997 | 10978 ft | 263 kts | 144° |
| 2026-04-29 11:07 | 30.97396 | 119.58270 | 10974 ft | 263 kts | 145° |
| 2026-04-29 11:07 | 30.95908 | 119.59563 | 10971 ft | 264 kts | 144° |
| 2026-04-29 11:08 | 30.94438 | 119.60840 | 10976 ft | 264 kts | 144° |
| 2026-04-29 11:08 | 30.92969 | 119.62116 | 10989 ft | 265 kts | 144° |
| 2026-04-29 11:08 | 30.91486 | 119.63404 | 10972 ft | 264 kts | 144° |
| 2026-04-29 11:08 | 30.90014 | 119.64680 | 10967 ft | 263 kts | 145° |
| 2026-04-29 11:09 | 30.88546 | 119.65960 | 10969 ft | 264 kts | 145° |
| 2026-04-29 11:09 | 30.87082 | 119.67233 | 10974 ft | 263 kts | 144° |
| 2026-04-29 11:09 | 30.85603 | 119.68515 | 10967 ft | 263 kts | 144° |
| 2026-04-29 11:09 | 30.84142 | 119.69782 | 10971 ft | 263 kts | 144° |
| 2026-04-29 11:10 | 30.82678 | 119.71052 | 10978 ft | 263 kts | 144° |
| 2026-04-29 11:10 | 30.81214 | 119.72318 | 10965 ft | 264 kts | 144° |
| 2026-04-29 11:10 | 30.79726 | 119.73611 | 10970 ft | 264 kts | 145° |
| 2026-04-29 11:10 | 30.78261 | 119.74880 | 10971 ft | 263 kts | 146° |
| 2026-04-29 11:11 | 30.76779 | 119.76163 | 10970 ft | 263 kts | 146° |
| 2026-04-29 11:11 | 30.75331 | 119.77416 | 10969 ft | 262 kts | 146° |
| 2026-04-29 11:11 | 30.73853 | 119.78692 | 10982 ft | 262 kts | 145° |
| 2026-04-29 11:11 | 30.72394 | 119.79951 | 10982 ft | 263 kts | 146° |
| 2026-04-29 11:12 | 30.70933 | 119.81229 | 10981 ft | 263 kts | 144° |
| 2026-04-29 11:12 | 30.69467 | 119.82562 | 10795 ft | 265 kts | 143° |
| 2026-04-29 11:12 | 30.68022 | 119.83890 | 10561 ft | 265 kts | 143° |
| 2026-04-29 11:12 | 30.66572 | 119.85218 | 10305 ft | 265 kts | 144° |
| 2026-04-29 11:13 | 30.65130 | 119.86532 | 10058 ft | 265 kts | 144° |
| 2026-04-29 11:13 | 30.63613 | 119.87747 | 9848 ft | 263 kts | 150° |
| 2026-04-29 11:13 | 30.62038 | 119.88791 | 9718 ft | 257 kts | 153° |
| 2026-04-29 11:13 | 30.60477 | 119.89780 | 9600 ft | 257 kts | 153° |
| 2026-04-29 11:14 | 30.58896 | 119.90775 | 9480 ft | 257 kts | 153° |
| 2026-04-29 11:14 | 30.57335 | 119.91761 | 9366 ft | 256 kts | 153° |
| 2026-04-29 11:14 | 30.55767 | 119.92753 | 9255 ft | 255 kts | 152° |
| 2026-04-29 11:14 | 30.54218 | 119.93733 | 9140 ft | 254 kts | 152° |
| 2026-04-29 11:15 | 30.52655 | 119.94727 | 9020 ft | 254 kts | 153° |
| 2026-04-29 11:15 | 30.51116 | 119.95703 | 8839 ft | 253 kts | 152° |
| 2026-04-29 11:15 | 30.49570 | 119.96681 | 8638 ft | 252 kts | 151° |
| 2026-04-29 11:15 | 30.48038 | 119.97651 | 8424 ft | 251 kts | 151° |
| 2026-04-29 11:16 | 30.46514 | 119.98618 | 8210 ft | 250 kts | 151° |
| 2026-04-29 11:16 | 30.44980 | 119.99590 | 7980 ft | 249 kts | 150° |
| 2026-04-29 11:16 | 30.43466 | 120.00545 | 7799 ft | 246 kts | 150° |
| 2026-04-29 11:16 | 30.41972 | 120.01492 | 7806 ft | 245 kts | 150° |
| 2026-04-29 11:17 | 30.40478 | 120.02440 | 7831 ft | 246 kts | 150° |
| 2026-04-29 11:17 | 30.38978 | 120.03390 | 7836 ft | 247 kts | 151° |
| 2026-04-29 11:17 | 30.37463 | 120.04350 | 7846 ft | 247 kts | 151° |
| 2026-04-29 11:17 | 30.35953 | 120.05305 | 7844 ft | 247 kts | 151° |
| 2026-04-29 11:18 | 30.34436 | 120.06264 | 7841 ft | 247 kts | 152° |
| 2026-04-29 11:18 | 30.32934 | 120.07214 | 7847 ft | 248 kts | 151° |
| 2026-04-29 11:18 | 30.31415 | 120.08171 | 7841 ft | 247 kts | 151° |
| 2026-04-29 11:18 | 30.29914 | 120.09120 | 7845 ft | 246 kts | 151° |
| 2026-04-29 11:19 | 30.28409 | 120.10073 | 7851 ft | 246 kts | 152° |
| 2026-04-29 11:19 | 30.26894 | 120.11029 | 7842 ft | 246 kts | 151° |
| 2026-04-29 11:19 | 30.25389 | 120.11977 | 7690 ft | 247 kts | 151° |
| 2026-04-29 11:19 | 30.23892 | 120.12920 | 7442 ft | 248 kts | 150° |
| 2026-04-29 11:20 | 30.22347 | 120.13840 | 7213 ft | 248 kts | 160° |
| 2026-04-29 11:20 | 30.20636 | 120.13937 | 6935 ft | 249 kts | 200° |
| 2026-04-29 11:20 | 30.19253 | 120.12815 | 6681 ft | 245 kts | 238° |
| 2026-04-29 11:20 | 30.18466 | 120.11077 | 6483 ft | 243 kts | 246° |
| 2026-04-29 11:21 | 30.17768 | 120.09328 | 6264 ft | 243 kts | 247° |
| 2026-04-29 11:21 | 30.17004 | 120.07566 | 6028 ft | 244 kts | 236° |
| 2026-04-29 11:21 | 30.15723 | 120.06345 | 5791 ft | 244 kts | 195° |
| 2026-04-29 11:21 | 30.14056 | 120.06303 | 5537 ft | 239 kts | 155° |
| 2026-04-29 11:22 | 30.12588 | 120.07173 | 5317 ft | 237 kts | 145° |
| 2026-04-29 11:22 | 30.11260 | 120.08288 | 5058 ft | 233 kts | 126° |
| 2026-04-29 11:22 | 30.10603 | 120.09924 | 4883 ft | 221 kts | 91° |
| 2026-04-29 11:22 | 30.10807 | 120.11594 | 4882 ft | 210 kts | 67° |
| 2026-04-29 11:23 | 30.11423 | 120.13116 | 4880 ft | 210 kts | 59° |
| 2026-04-29 11:23 | 30.12136 | 120.14576 | 4875 ft | 209 kts | 58° |
| 2026-04-29 11:23 | 30.12852 | 120.16049 | 4737 ft | 208 kts | 58° |
| 2026-04-29 11:23 | 30.13537 | 120.17512 | 4470 ft | 210 kts | 59° |
| 2026-04-29 11:24 | 30.14219 | 120.19021 | 4172 ft | 210 kts | 60° |
| 2026-04-29 11:24 | 30.14876 | 120.20509 | 3889 ft | 208 kts | 60° |
| 2026-04-29 11:24 | 30.15518 | 120.21978 | 3586 ft | 203 kts | 60° |
| 2026-04-29 11:24 | 30.16143 | 120.23412 | 3323 ft | 194 kts | 61° |
| 2026-04-29 11:25 | 30.16733 | 120.24764 | 3092 ft | 185 kts | 61° |
| 2026-04-29 11:25 | 30.17294 | 120.26047 | 2879 ft | 172 kts | 60° |
| 2026-04-29 11:25 | 30.17817 | 120.27241 | 2661 ft | 163 kts | 60° |
| 2026-04-29 11:25 | 30.18324 | 120.28394 | 2434 ft | 156 kts | 60° |
| 2026-04-29 11:26 | 30.19260 | 120.30520 | 2005 ft | 142 kts | 60° |
| 2026-04-29 11:26 | 30.19699 | 120.31516 | 1809 ft | 135 kts | 59° |
| 2026-04-29 11:26 | 30.20118 | 120.32463 | 1635 ft | 132 kts | 60° |
| 2026-04-29 11:27 | 30.20532 | 120.33401 | 1472 ft | 132 kts | 59° |
| 2026-04-29 11:27 | 30.20951 | 120.34348 | 1301 ft | 132 kts | 60° |
| 2026-04-29 11:27 | 30.21368 | 120.35294 | 1126 ft | 131 kts | 60° |
| 2026-04-29 11:27 | 30.21776 | 120.36243 | 941 ft | 131 kts | 59° |
| 2026-04-29 11:28 | 30.22207 | 120.37155 | 750 ft | 130 kts | 58° |
| 2026-04-29 11:28 | 30.22627 | 120.38084 | 585 ft | 130 kts | 62° |
| 2026-04-29 11:28 | 30.23018 | 120.39028 | 417 ft | 130 kts | 59° |
| 2026-04-29 11:28 | 30.23428 | 120.39954 | 239 ft | 129 kts | 60° |
| 2026-04-29 11:29 | 30.23841 | 120.40878 | 67 ft | 128 kts | 60° |
| 2026-04-29 11:29 | 30.24223 | 120.41730 | 38 ft | 100 kts | 62° |
| 2026-04-29 11:29 | 30.24460 | 120.42269 | 38 ft | 55 kts | 62° |
| 2026-04-29 11:29 | 30.24558 | 120.42609 | 38 ft | 37 kts | 87° |
| 2026-04-29 11:30 | 30.24554 | 120.42792 | 38 ft | 16 kts | 90° |
| 2026-04-29 11:30 | 30.24553 | 120.42915 | 38 ft | 11 kts | 107° |
| 2026-04-29 11:30 | 30.24501 | 120.42956 | 38 ft | 8 kts | 172° |
| 2026-04-29 11:30 | 30.24456 | 120.42918 | 38 ft | 9 kts | 235° |
| 2026-04-29 11:31 | 30.24423 | 120.42849 | 38 ft | 10 kts | 243° |
| 2026-04-29 11:31 | 30.24386 | 120.42766 | 38 ft | 12 kts | 243° |
| 2026-04-29 11:31 | 30.24344 | 120.42670 | 38 ft | 13 kts | 243° |
| 2026-04-29 11:31 | 30.24299 | 120.42568 | 38 ft | 15 kts | 242° |
| 2026-04-29 11:32 | 30.24249 | 120.42476 | 38 ft | 6 kts | 212° |
| 2026-04-29 11:32 | 30.24197 | 120.42477 | 38 ft | 7 kts | 179° |
| 2026-04-29 11:32 | 30.24147 | 120.42444 | 38 ft | 11 kts | 234° |
| 2026-04-29 11:32 | 30.24106 | 120.42354 | 37 ft | 13 kts | 242° |
| 2026-04-29 11:33 | 30.24062 | 120.42258 | 37 ft | 14 kts | 243° |
| 2026-04-29 11:33 | 30.24013 | 120.42183 | 38 ft | 6 kts | 191° |
| 2026-04-29 11:33 | 30.23961 | 120.42203 | 38 ft | 9 kts | 153° |
| 2026-04-29 11:33 | 30.23898 | 120.42239 | 38 ft | 10 kts | 153° |
| 2026-04-29 11:34 | 30.23835 | 120.42278 | 38 ft | 10 kts | 147° |
| 2026-04-29 11:34 | 30.23818 | 120.42335 | 38 ft | 8 kts | 79° |
| 2026-04-29 11:34 | 30.23834 | 120.42381 | 38 ft | 4 kts | 65° |
| 2026-04-29 11:34 | 30.23838 | 120.42387 | 38 ft | 0 kts | 64° |